<?xml version="1.0" encoding="UTF-8"?>
<gpx xmlns="http://www.topografix.com/GPX/1/1" xmlns:gpsies="http://www.gpsies.com/GPX/1/0" creator="GPSies http://www.gpsies.com - Effort_6918646098" version="1.1" xmlns:xsi="http://www.w3.org/2001/XMLSchema-instance" xsi:schemaLocation="http://www.topografix.com/GPX/1/1 http://www.topografix.com/GPX/1/1/gpx.xsd http://www.gpsies.com/GPX/1/0 http://www.gpsies.com/gpsies.xsd">
  <metadata>
    <name>Effort_6918646098</name>
    <link href="http://www.gpsies.com/">
      <text>Effort_6918646098 on GPSies.com</text>
    </link>
    <time>2015-04-29T18:36:34Z</time>
  </metadata>
  <trk>
    <name>Effort_6918646098 on GPSies.com</name>
    <trkseg>
      <trkpt lat="57.67316000" lon="12.02299000">
        <ele>122.00000</ele>
        <time>2015-04-28T17:51:15Z</time>
      </trkpt>
      <trkpt lat="57.67302000" lon="12.02328000">
        <ele>121.00000</ele>
        <time>2015-04-28T17:51:18Z</time>
      </trkpt>
      <trkpt lat="57.67283000" lon="12.02359000">
        <ele>119.00000</ele>
        <time>2015-04-28T17:51:21Z</time>
      </trkpt>
      <trkpt lat="57.67268000" lon="12.02392000">
        <ele>117.00000</ele>
        <time>2015-04-28T17:51:24Z</time>
      </trkpt>
      <trkpt lat="57.67274000" lon="12.02422000">
        <ele>116.00000</ele>
        <time>2015-04-28T17:51:27Z</time>
      </trkpt>
      <trkpt lat="57.67285000" lon="12.02439000">
        <ele>114.00000</ele>
        <time>2015-04-28T17:51:30Z</time>
      </trkpt>
      <trkpt lat="57.67286000" lon="12.02459000">
        <ele>114.00000</ele>
        <time>2015-04-28T17:51:33Z</time>
      </trkpt>
      <trkpt lat="57.67275000" lon="12.02473000">
        <ele>115.00000</ele>
        <time>2015-04-28T17:51:36Z</time>
      </trkpt>
      <trkpt lat="57.67267000" lon="12.02488000">
        <ele>116.00000</ele>
        <time>2015-04-28T17:51:39Z</time>
      </trkpt>
      <trkpt lat="57.67260000" lon="12.02496000">
        <ele>116.00000</ele>
        <time>2015-04-28T17:51:43Z</time>
      </trkpt>
      <trkpt lat="57.67247000" lon="12.02489000">
        <ele>117.00000</ele>
        <time>2015-04-28T17:51:49Z</time>
      </trkpt>
      <trkpt lat="57.67240000" lon="12.02487000">
        <ele>118.00000</ele>
        <time>2015-04-28T17:51:52Z</time>
      </trkpt>
      <trkpt lat="57.67227000" lon="12.02495000">
        <ele>119.00000</ele>
        <time>2015-04-28T17:51:58Z</time>
      </trkpt>
      <trkpt lat="57.67224000" lon="12.02495000">
        <ele>120.00000</ele>
        <time>2015-04-28T17:52:01Z</time>
      </trkpt>
      <trkpt lat="57.67223000" lon="12.02490000">
        <ele>120.00000</ele>
        <time>2015-04-28T17:52:04Z</time>
      </trkpt>
      <trkpt lat="57.67221000" lon="12.02478000">
        <ele>119.00000</ele>
        <time>2015-04-28T17:52:07Z</time>
      </trkpt>
      <trkpt lat="57.67219000" lon="12.02470000">
        <ele>118.00000</ele>
        <time>2015-04-28T17:52:10Z</time>
      </trkpt>
      <trkpt lat="57.67216000" lon="12.02466000">
        <ele>117.00000</ele>
        <time>2015-04-28T17:52:13Z</time>
      </trkpt>
      <trkpt lat="57.67210000" lon="12.02466000">
        <ele>115.00000</ele>
        <time>2015-04-28T17:52:16Z</time>
      </trkpt>
      <trkpt lat="57.67203000" lon="12.02467000">
        <ele>113.00000</ele>
        <time>2015-04-28T17:52:19Z</time>
      </trkpt>
      <trkpt lat="57.67192000" lon="12.02469000">
        <ele>111.00000</ele>
        <time>2015-04-28T17:52:22Z</time>
      </trkpt>
      <trkpt lat="57.67182000" lon="12.02468000">
        <ele>110.00000</ele>
        <time>2015-04-28T17:52:25Z</time>
      </trkpt>
      <trkpt lat="57.67165000" lon="12.02467000">
        <ele>109.00000</ele>
        <time>2015-04-28T17:52:31Z</time>
      </trkpt>
      <trkpt lat="57.67158000" lon="12.02462000">
        <ele>109.00000</ele>
        <time>2015-04-28T17:52:35Z</time>
      </trkpt>
      <trkpt lat="57.67151000" lon="12.02469000">
        <ele>110.00000</ele>
        <time>2015-04-28T17:52:38Z</time>
      </trkpt>
      <trkpt lat="57.67147000" lon="12.02474000">
        <ele>111.00000</ele>
        <time>2015-04-28T17:52:43Z</time>
      </trkpt>
      <trkpt lat="57.67142000" lon="12.02478000">
        <ele>110.00000</ele>
        <time>2015-04-28T17:52:46Z</time>
      </trkpt>
      <trkpt lat="57.67138000" lon="12.02479000">
        <ele>109.00000</ele>
        <time>2015-04-28T17:52:49Z</time>
      </trkpt>
      <trkpt lat="57.67135000" lon="12.02477000">
        <ele>107.00000</ele>
        <time>2015-04-28T17:52:52Z</time>
      </trkpt>
      <trkpt lat="57.67129000" lon="12.02474000">
        <ele>105.00000</ele>
        <time>2015-04-28T17:52:55Z</time>
      </trkpt>
      <trkpt lat="57.67118000" lon="12.02478000">
        <ele>103.00000</ele>
        <time>2015-04-28T17:52:58Z</time>
      </trkpt>
      <trkpt lat="57.67108000" lon="12.02482000">
        <ele>100.00000</ele>
        <time>2015-04-28T17:53:01Z</time>
      </trkpt>
      <trkpt lat="57.67101000" lon="12.02477000">
        <ele>98.000000</ele>
        <time>2015-04-28T17:53:04Z</time>
      </trkpt>
      <trkpt lat="57.67102000" lon="12.02482000">
        <ele>98.000000</ele>
        <time>2015-04-28T17:53:10Z</time>
      </trkpt>
      <trkpt lat="57.67101000" lon="12.02493000">
        <ele>98.000000</ele>
        <time>2015-04-28T17:53:13Z</time>
      </trkpt>
      <trkpt lat="57.67102000" lon="12.02507000">
        <ele>97.000000</ele>
        <time>2015-04-28T17:53:16Z</time>
      </trkpt>
      <trkpt lat="57.67103000" lon="12.02528000">
        <ele>96.000000</ele>
        <time>2015-04-28T17:53:19Z</time>
      </trkpt>
      <trkpt lat="57.67105000" lon="12.02551000">
        <ele>95.000000</ele>
        <time>2015-04-28T17:53:22Z</time>
      </trkpt>
      <trkpt lat="57.67098000" lon="12.02574000">
        <ele>93.000000</ele>
        <time>2015-04-28T17:53:25Z</time>
      </trkpt>
      <trkpt lat="57.67088000" lon="12.02587000">
        <ele>90.000000</ele>
        <time>2015-04-28T17:53:28Z</time>
      </trkpt>
      <trkpt lat="57.67086000" lon="12.02601000">
        <ele>87.000000</ele>
        <time>2015-04-28T17:53:31Z</time>
      </trkpt>
      <trkpt lat="57.67084000" lon="12.02614000">
        <ele>85.000000</ele>
        <time>2015-04-28T17:53:34Z</time>
      </trkpt>
      <trkpt lat="57.67073000" lon="12.02627000">
        <ele>82.000000</ele>
        <time>2015-04-28T17:53:37Z</time>
      </trkpt>
      <trkpt lat="57.67057000" lon="12.02622000">
        <ele>78.000000</ele>
        <time>2015-04-28T17:53:40Z</time>
      </trkpt>
      <trkpt lat="57.67031000" lon="12.02614000">
        <ele>76.000000</ele>
        <time>2015-04-28T17:53:44Z</time>
      </trkpt>
      <trkpt lat="57.67009000" lon="12.02609000">
        <ele>75.000000</ele>
        <time>2015-04-28T17:53:47Z</time>
      </trkpt>
      <trkpt lat="57.66994000" lon="12.02602000">
        <ele>74.000000</ele>
        <time>2015-04-28T17:53:50Z</time>
      </trkpt>
      <trkpt lat="57.66983000" lon="12.02584000">
        <ele>73.000000</ele>
        <time>2015-04-28T17:53:53Z</time>
      </trkpt>
      <trkpt lat="57.66972000" lon="12.02571000">
        <ele>72.000000</ele>
        <time>2015-04-28T17:53:56Z</time>
      </trkpt>
      <trkpt lat="57.66963000" lon="12.02555000">
        <ele>73.000000</ele>
        <time>2015-04-28T17:53:59Z</time>
      </trkpt>
      <trkpt lat="57.66956000" lon="12.02548000">
        <ele>74.000000</ele>
        <time>2015-04-28T17:54:02Z</time>
      </trkpt>
      <trkpt lat="57.66950000" lon="12.02541000">
        <ele>77.000000</ele>
        <time>2015-04-28T17:54:05Z</time>
      </trkpt>
      <trkpt lat="57.66941000" lon="12.02533000">
        <ele>79.000000</ele>
        <time>2015-04-28T17:54:08Z</time>
      </trkpt>
      <trkpt lat="57.66922000" lon="12.02510000">
        <ele>79.000000</ele>
        <time>2015-04-28T17:54:14Z</time>
      </trkpt>
      <trkpt lat="57.66913000" lon="12.02493000">
        <ele>80.000000</ele>
        <time>2015-04-28T17:54:17Z</time>
      </trkpt>
      <trkpt lat="57.66908000" lon="12.02481000">
        <ele>81.000000</ele>
        <time>2015-04-28T17:54:20Z</time>
      </trkpt>
      <trkpt lat="57.66901000" lon="12.02486000">
        <ele>81.000000</ele>
        <time>2015-04-28T17:54:23Z</time>
      </trkpt>
      <trkpt lat="57.66891000" lon="12.02494000">
        <ele>81.000000</ele>
        <time>2015-04-28T17:54:27Z</time>
      </trkpt>
      <trkpt lat="57.66886000" lon="12.02517000">
        <ele>81.000000</ele>
        <time>2015-04-28T17:54:31Z</time>
      </trkpt>
      <trkpt lat="57.66879000" lon="12.02545000">
        <ele>80.000000</ele>
        <time>2015-04-28T17:54:34Z</time>
      </trkpt>
      <trkpt lat="57.66871000" lon="12.02573000">
        <ele>78.000000</ele>
        <time>2015-04-28T17:54:37Z</time>
      </trkpt>
      <trkpt lat="57.66858000" lon="12.02584000">
        <ele>75.000000</ele>
        <time>2015-04-28T17:54:40Z</time>
      </trkpt>
      <trkpt lat="57.66848000" lon="12.02587000">
        <ele>73.000000</ele>
        <time>2015-04-28T17:54:44Z</time>
      </trkpt>
      <trkpt lat="57.66839000" lon="12.02580000">
        <ele>72.000000</ele>
        <time>2015-04-28T17:54:47Z</time>
      </trkpt>
      <trkpt lat="57.66829000" lon="12.02574000">
        <ele>71.000000</ele>
        <time>2015-04-28T17:54:50Z</time>
      </trkpt>
      <trkpt lat="57.66818000" lon="12.02566000">
        <ele>70.000000</ele>
        <time>2015-04-28T17:54:53Z</time>
      </trkpt>
      <trkpt lat="57.66803000" lon="12.02560000">
        <ele>70.000000</ele>
        <time>2015-04-28T17:54:56Z</time>
      </trkpt>
      <trkpt lat="57.66790000" lon="12.02550000">
        <ele>69.000000</ele>
        <time>2015-04-28T17:54:59Z</time>
      </trkpt>
      <trkpt lat="57.66774000" lon="12.02536000">
        <ele>68.000000</ele>
        <time>2015-04-28T17:55:02Z</time>
      </trkpt>
      <trkpt lat="57.66761000" lon="12.02514000">
        <ele>66.000000</ele>
        <time>2015-04-28T17:55:05Z</time>
      </trkpt>
      <trkpt lat="57.66751000" lon="12.02491000">
        <ele>65.000000</ele>
        <time>2015-04-28T17:55:08Z</time>
      </trkpt>
      <trkpt lat="57.66738000" lon="12.02469000">
        <ele>65.000000</ele>
        <time>2015-04-28T17:55:13Z</time>
      </trkpt>
      <trkpt lat="57.66735000" lon="12.02446000">
        <ele>65.000000</ele>
        <time>2015-04-28T17:55:18Z</time>
      </trkpt>
      <trkpt lat="57.66733000" lon="12.02422000">
        <ele>64.000000</ele>
        <time>2015-04-28T17:55:21Z</time>
      </trkpt>
      <trkpt lat="57.66730000" lon="12.02412000">
        <ele>62.000000</ele>
        <time>2015-04-28T17:55:22Z</time>
      </trkpt>
    </trkseg>
  </trk>
</gpx>

